Time;durP1;ratioP1;P1;durP2;ratioP2;P2;SDS_P1;SDS_P2;PMS_P1;PMS_P2;Temp;Humidity;BMP_temperature;BMP_pressure;BME280_temperature;BME280_humidity;BME280_pressure;Samples;Min_cycle;Max_cycle;Signal;HPM_P1;HPM_P2
2024/03/25 00:01:54;;;;;;;2.55;1.42;;;1.70;99.90;;;;;;4998354;28;20097;-76
2024/03/25 00:04:22;;;;;;;3.05;1.67;;;1.60;99.90;;;;;;4997189;28;20054;-77
2024/03/25 00:06:48;;;;;;;5.85;1.30;;;1.90;99.90;;;;;;4996813;28;20026;-76
2024/03/25 00:09:14;;;;;;;3.30;1.60;;;2.10;99.90;;;;;;4994083;28;20026;-76
2024/03/25 00:11:43;;;;;;;2.30;1.52;;;1.60;99.90;;;;;;4994039;28;20405;-76
2024/03/25 00:14:08;;;;;;;1.48;1.38;;;1.60;99.90;;;;;;4993605;28;20428;-76
2024/03/25 00:16:34;;;;;;;2.47;1.33;;;1.60;99.90;;;;;;4993568;28;20490;-76
2024/03/25 00:19:00;;;;;;;1.45;1.35;;;1.50;99.90;;;;;;4993498;28;20022;-76
2024/03/25 00:21:26;;;;;;;2.25;1.23;;;1.50;99.90;;;;;;4993097;28;20030;-76
2024/03/25 00:23:51;;;;;;;1.83;1.17;;;1.70;99.90;;;;;;4993064;28;20389;-76
2024/03/25 00:26:17;;;;;;;1.30;0.80;;;1.50;99.90;;;;;;4993782;28;20077;-76
2024/03/25 00:28:43;;;;;;;1.48;1.20;;;1.50;99.90;;;;;;4992118;28;20033;-74
2024/03/25 00:31:09;;;;;;;3.10;1.00;;;1.80;99.90;;;;;;4991942;28;20034;-75
2024/03/25 00:33:35;;;;;;;1.55;1.02;;;1.40;99.90;;;;;;4990030;28;20081;-75
2024/03/25 00:36:01;;;;;;;2.45;1.15;;;1.50;99.90;;;;;;4990834;28;20023;-76
2024/03/25 00:38:27;;;;;;;1.25;0.77;;;1.60;99.90;;;;;;4992507;28;20033;-77
2024/03/25 00:40:53;;;;;;;1.48;0.73;;;1.60;99.90;;;;;;4992688;28;20022;-76
2024/03/25 00:43:19;;;;;;;3.65;1.30;;;2.10;99.90;;;;;;4990854;28;20030;-76
2024/03/25 00:45:45;;;;;;;2.15;1.95;;;1.90;99.90;;;;;;4991972;28;20596;-77
2024/03/25 00:48:11;;;;;;;3.50;2.50;;;1.50;99.90;;;;;;4993756;28;20030;-76
2024/03/25 00:50:37;;;;;;;2.90;1.40;;;1.90;99.90;;;;;;4992515;28;20026;-76
2024/03/25 00:53:03;;;;;;;3.83;1.08;;;1.50;99.90;;;;;;4992949;28;20552;-76
2024/03/25 00:55:29;;;;;;;3.83;0.95;;;1.50;99.90;;;;;;4993220;28;20481;-76
2024/03/25 00:57:54;;;;;;;2.03;1.40;;;1.80;99.90;;;;;;4992527;28;20029;-76
2024/03/25 01:00:20;;;;;;;1.98;1.75;;;1.90;99.90;;;;;;4991875;28;20022;-76
2024/03/25 01:02:46;;;;;;;2.92;2.05;;;1.50;99.90;;;;;;4991541;28;20050;-76
2024/03/25 01:05:12;;;;;;;3.30;2.13;;;1.70;99.90;;;;;;4993011;28;20027;-76
2024/03/25 01:07:39;;;;;;;2.17;1.60;;;1.60;99.90;;;;;;4992769;28;20565;-76
2024/03/25 01:10:06;;;;;;;1.60;1.50;;;1.70;99.90;;;;;;4992971;28;20069;-76
2024/03/25 01:12:32;;;;;;;4.80;1.45;;;1.70;99.90;;;;;;4992433;28;20485;-75
2024/03/25 01:14:57;;;;;;;3.08;1.70;;;1.80;99.90;;;;;;4992765;28;20044;-77
2024/03/25 01:17:23;;;;;;;2.92;1.67;;;1.80;99.90;;;;;;4996415;28;20019;-77
2024/03/25 01:19:49;;;;;;;6.40;2.13;;;1.80;99.90;;;;;;4996562;28;20030;-76
2024/03/25 01:22:14;;;;;;;2.08;1.65;;;2.00;99.90;;;;;;4995194;28;20447;-75
2024/03/25 01:24:40;;;;;;;3.92;1.92;;;1.80;99.90;;;;;;4995294;28;20538;-76
2024/03/25 01:27:06;;;;;;;3.13;1.75;;;1.80;99.90;;;;;;4996779;28;20072;-77
2024/03/25 01:29:32;;;;;;;7.45;2.65;;;1.80;99.90;;;;;;4995057;28;20076;-76
2024/03/25 01:31:59;;;;;;;5.38;2.70;;;2.30;99.90;;;;;;4996341;28;20030;-74
2024/03/25 01:34:27;;;;;;;2.47;1.85;;;1.90;99.90;;;;;;4995533;28;20612;-76
2024/03/25 01:36:53;;;;;;;4.38;2.25;;;1.80;99.90;;;;;;4995453;28;20373;-76
2024/03/25 01:39:18;;;;;;;4.50;2.30;;;1.80;99.90;;;;;;4996032;28;20109;-77
2024/03/25 01:41:45;;;;;;;5.18;2.03;;;1.80;99.90;;;;;;4996440;28;20033;-76
2024/03/25 01:44:11;;;;;;;5.50;2.50;;;2.10;99.90;;;;;;4994483;28;20413;-77
2024/03/25 01:46:39;;;;;;;4.20;2.15;;;1.70;99.90;;;;;;4994969;28;20026;-77
2024/03/25 01:49:05;;;;;;;5.90;1.90;;;1.70;99.90;;;;;;4996146;28;20500;-77
2024/03/25 01:51:32;;;;;;;3.95;2.05;;;1.80;99.90;;;;;;4996260;28;20403;-77
2024/03/25 01:53:59;;;;;;;3.42;1.70;;;1.80;99.90;;;;;;4994919;28;20489;-77
2024/03/25 01:56:25;;;;;;;6.75;1.95;;;1.70;99.90;;;;;;4995741;28;20034;-76
2024/03/25 01:58:51;;;;;;;6.05;2.50;;;1.90;99.90;;;;;;4994806;28;20512;-77
2024/03/25 02:01:19;;;;;;;11.48;2.95;;;1.70;99.90;;;;;;4995933;28;20027;-76
2024/03/25 02:03:45;;;;;;;4.97;2.22;;;1.80;99.90;;;;;;4994392;28;20022;-76
2024/03/25 02:06:13;;;;;;;5.28;2.10;;;1.90;99.90;;;;;;4995853;28;20033;-76
2024/03/25 02:08:41;;;;;;;3.63;2.10;;;1.80;99.90;;;;;;4994842;28;20031;-76
2024/03/25 02:11:07;;;;;;;3.65;1.70;;;2.10;99.90;;;;;;5029001;23;20118;-80
2024/03/25 02:13:33;;;;;;;2.72;1.92;;;2.30;99.90;;;;;;5015444;28;20036;-79
2024/03/25 02:15:59;;;;;;;3.90;1.88;;;1.90;99.90;;;;;;5009310;28;20038;-80
2024/03/25 02:18:24;;;;;;;3.25;1.65;;;1.80;99.90;;;;;;4995331;28;20030;-79
2024/03/25 02:20:50;;;;;;;3.25;2.05;;;1.90;99.90;;;;;;4980515;28;20030;-79
2024/03/25 02:23:16;;;;;;;4.50;1.80;;;1.90;99.90;;;;;;4976517;28;20102;-79
2024/03/25 02:25:42;;;;;;;6.57;2.08;;;2.00;99.90;;;;;;4975600;28;20540;-79
2024/03/25 02:28:09;;;;;;;3.63;1.95;;;2.50;99.90;;;;;;4974019;28;20042;-79
2024/03/25 02:30:36;;;;;;;2.05;1.52;;;2.00;99.90;;;;;;4975213;28;20034;-79
2024/03/25 02:33:02;;;;;;;4.55;2.03;;;2.30;99.90;;;;;;4974716;28;20054;-79
2024/03/25 02:35:28;;;;;;;4.00;1.73;;;1.70;99.90;;;;;;4975255;28;20069;-80
2024/03/25 02:37:54;;;;;;;2.78;1.80;;;2.80;99.90;;;;;;4976415;28;20058;-79
2024/03/25 02:40:21;;;;;;;3.50;1.35;;;1.90;99.90;;;;;;4975020;28;20023;-79
2024/03/25 02:42:47;;;;;;;9.15;2.40;;;1.90;99.90;;;;;;4974597;28;20565;-79
2024/03/25 02:45:13;;;;;;;4.97;2.25;;;2.60;99.90;;;;;;4975542;28;20054;-79
2024/03/25 02:47:38;;;;;;;6.65;2.10;;;1.90;99.90;;;;;;4974595;28;20081;-80
2024/03/25 02:50:04;;;;;;;2.55;1.73;;;1.80;99.90;;;;;;4974875;28;20568;-80
2024/03/25 02:52:30;;;;;;;5.25;2.05;;;1.90;99.90;;;;;;4989935;28;20094;-79
2024/03/25 02:54:56;;;;;;;5.43;2.28;;;1.80;99.90;;;;;;4983652;28;20034;-80
2024/03/25 02:57:22;;;;;;;3.70;1.65;;;1.90;99.90;;;;;;4974769;28;20106;-80
2024/03/25 02:59:47;;;;;;;3.50;1.92;;;1.90;99.90;;;;;;4977909;28;20029;-79
2024/03/25 03:02:13;;;;;;;2.70;1.95;;;1.90;99.90;;;;;;4994792;28;20557;-79
2024/03/25 03:04:39;;;;;;;3.30;2.25;;;2.00;99.90;;;;;;4994038;28;20026;-79
2024/03/25 03:07:04;;;;;;;2.65;1.52;;;2.00;99.90;;;;;;4993916;28;20069;-79
2024/03/25 03:09:30;;;;;;;2.60;1.60;;;1.90;99.90;;;;;;4993573;28;20485;-79
2024/03/25 03:11:56;;;;;;;2.95;1.70;;;1.90;99.90;;;;;;4993954;28;20023;-79
2024/03/25 03:14:22;;;;;;;5.18;2.53;;;2.10;99.90;;;;;;4993225;28;20026;-79
2024/03/25 03:16:47;;;;;;;6.13;2.72;;;2.00;99.90;;;;;;4993654;28;20022;-79
2024/03/25 03:19:13;;;;;;;3.72;1.80;;;2.00;99.90;;;;;;4989530;28;20058;-79
2024/03/25 03:21:39;;;;;;;3.33;1.92;;;2.00;99.90;;;;;;4993756;28;20026;-79
2024/03/25 03:24:05;;;;;;;2.92;1.50;;;2.10;99.90;;;;;;4993222;28;20033;-79
2024/03/25 03:26:31;;;;;;;7.72;2.20;;;1.90;99.90;;;;;;4994981;28;20088;-79
2024/03/25 03:28:57;;;;;;;4.32;2.10;;;1.80;99.90;;;;;;4998212;28;20465;-79
2024/03/25 03:31:23;;;;;;;6.43;1.70;;;1.80;99.90;;;;;;4997764;28;20084;-79
2024/03/25 03:33:49;;;;;;;4.63;2.58;;;1.80;99.90;;;;;;4993860;28;20540;-79
2024/03/25 03:36:19;;;;;;;3.78;2.83;;;2.80;99.90;;;;;;4993365;28;20496;-79
2024/03/25 03:38:46;;;;;;;3.88;1.42;;;2.00;99.90;;;;;;4993082;28;20401;-80
2024/03/25 03:41:12;;;;;;;5.28;1.52;;;2.30;99.90;;;;;;4994278;28;20077;-79
2024/03/25 03:43:37;;;;;;;2.67;1.55;;;1.90;99.90;;;;;;4992768;28;20030;-79
2024/03/25 03:46:03;;;;;;;2.20;1.65;;;1.90;99.90;;;;;;4993201;28;20077;-79
2024/03/25 03:48:30;;;;;;;6.28;2.60;;;1.80;99.90;;;;;;4994547;28;20555;-79
2024/03/25 03:50:56;;;;;;;6.25;1.90;;;1.80;99.90;;;;;;5009276;28;20177;-81
2024/03/25 03:53:22;;;;;;;2.47;2.28;;;1.80;99.90;;;;;;4992651;28;20067;-79
2024/03/25 03:55:59;;;;;;;2.25;1.40;;;2.00;99.90;;;;;;4992381;28;20038;-79
2024/03/25 03:58:25;;;;;;;4.18;1.88;;;2.10;99.90;;;;;;4993502;28;20549;-79
2024/03/25 04:00:51;;;;;;;5.68;1.70;;;1.90;99.90;;;;;;4993851;28;20022;-79
2024/03/25 04:03:17;;;;;;;1.75;1.40;;;2.00;99.90;;;;;;4992531;28;20034;-79
2024/03/25 04:05:43;;;;;;;3.70;2.03;;;2.00;99.90;;;;;;4990615;28;20080;-79
2024/03/25 04:08:08;;;;;;;2.38;1.77;;;1.80;99.90;;;;;;4982537;28;20031;-79
2024/03/25 04:10:35;;;;;;;1.70;1.10;;;1.90;99.90;;;;;;4992754;28;20505;-79
2024/03/25 04:13:01;;;;;;;3.20;2.42;;;1.90;99.90;;;;;;4992375;28;20034;-79
2024/03/25 04:15:27;;;;;;;3.75;2.13;;;2.10;99.90;;;;;;4992833;28;20033;-79
2024/03/25 04:17:53;;;;;;;5.82;1.60;;;2.00;99.90;;;;;;4994008;28;20022;-79
2024/03/25 04:20:19;;;;;;;5.88;2.00;;;2.20;99.90;;;;;;4992437;28;20023;-79
2024/03/25 04:22:46;;;;;;;2.25;1.35;;;1.90;99.90;;;;;;4992473;28;20026;-79
2024/03/25 04:25:12;;;;;;;1.65;1.10;;;3.00;99.90;;;;;;4992620;28;20026;-79
2024/03/25 04:27:44;;;;;;;3.15;1.25;;;2.30;99.90;;;;;;4992560;28;20037;-79
2024/03/25 04:30:11;;;;;;;2.45;1.00;;;1.80;99.90;;;;;;4993532;28;20026;-79
2024/03/25 04:32:38;;;;;;;1.73;0.93;;;1.90;99.90;;;;;;4991905;28;20398;-79
2024/03/25 04:35:06;;;;;;;2.75;1.85;;;2.00;99.90;;;;;;4993568;28;20543;-79
2024/03/25 04:37:32;;;;;;;2.15;1.40;;;1.90;99.90;;;;;;4991777;28;20033;-79
2024/03/25 04:39:58;;;;;;;1.42;1.25;;;1.90;99.90;;;;;;4992057;28;20073;-79
2024/03/25 04:42:23;;;;;;;4.72;1.58;;;1.90;99.90;;;;;;4991938;28;20421;-79
2024/03/25 04:44:50;;;;;;;2.42;1.80;;;1.90;99.90;;;;;;4992320;28;20061;-79
2024/03/25 04:47:16;;;;;;;3.10;1.55;;;2.00;99.90;;;;;;4992185;28;20053;-79
2024/03/25 04:49:42;;;;;;;3.42;1.75;;;2.00;99.90;;;;;;4991536;28;20029;-79
2024/03/25 04:52:08;;;;;;;2.67;1.52;;;2.00;99.90;;;;;;4991328;28;20030;-79
2024/03/25 04:54:33;;;;;;;2.28;1.13;;;2.00;99.90;;;;;;4992589;28;20022;-79
2024/03/25 04:56:59;;;;;;;1.45;1.35;;;2.00;99.90;;;;;;4992116;28;20042;-79
2024/03/25 04:59:25;;;;;;;5.70;1.15;;;2.10;99.90;;;;;;4992011;28;20023;-79
2024/03/25 05:01:51;;;;;;;2.22;1.50;;;2.10;99.90;;;;;;4992152;28;20059;-79
2024/03/25 05:04:18;;;;;;;2.55;1.67;;;2.00;99.90;;;;;;5000177;28;20034;-80
2024/03/25 05:06:43;;;;;;;1.25;1.15;;;2.60;99.90;;;;;;5011963;28;20050;-80
2024/03/25 05:09:10;;;;;;;1.58;1.48;;;2.00;99.90;;;;;;5012090;28;20054;-79
2024/03/25 05:11:35;;;;;;;3.90;1.90;;;2.20;99.90;;;;;;5004190;28;20050;-80
2024/03/25 05:14:01;;;;;;;1.83;1.33;;;2.10;99.90;;;;;;4991396;28;20604;-79
2024/03/25 05:16:27;;;;;;;2.17;1.80;;;2.30;99.90;;;;;;4992026;28;20026;-79
2024/03/25 05:18:52;;;;;;;10.13;4.07;;;2.20;99.90;;;;;;4991825;28;20026;-79
2024/03/25 05:21:18;;;;;;;5.20;2.85;;;2.20;99.90;;;;;;4993010;28;20023;-79
2024/03/25 05:23:44;;;;;;;8.18;4.57;;;2.30;99.90;;;;;;4992468;28;20053;-79
2024/03/25 05:26:10;;;;;;;4.07;2.13;;;2.20;99.90;;;;;;4991901;28;20397;-79
2024/03/25 05:28:35;;;;;;;3.72;1.65;;;2.30;99.90;;;;;;4991558;28;20056;-79
2024/03/25 05:31:08;;;;;;;4.28;1.80;;;2.30;99.90;;;;;;4991580;28;20188;-79
2024/03/25 05:33:34;;;;;;;2.60;1.65;;;2.30;99.90;;;;;;4990904;28;20105;-79
2024/03/25 05:36:00;;;;;;;1.25;1.02;;;2.40;99.90;;;;;;4990658;28;20125;-79
2024/03/25 05:38:26;;;;;;;3.58;1.85;;;2.30;99.90;;;;;;4991616;28;20085;-79
2024/03/25 05:40:52;;;;;;;3.15;1.75;;;2.30;99.90;;;;;;4991940;28;20023;-79
2024/03/25 05:43:20;;;;;;;1.73;1.42;;;2.40;99.90;;;;;;4991176;28;20158;-79
2024/03/25 05:45:55;;;;;;;3.10;2.25;;;2.80;99.90;;;;;;4991723;28;20037;-79
2024/03/25 05:48:21;;;;;;;2.30;1.50;;;2.60;99.90;;;;;;4991684;28;20106;-79
2024/03/25 05:51:02;;;;;;;2.83;1.75;;;2.70;99.90;;;;;;4991556;28;20084;-79
2024/03/25 05:53:28;;;;;;;1.20;1.10;;;2.40;99.90;;;;;;4991412;28;20683;-79
2024/03/25 05:55:54;;;;;;;2.13;1.30;;;2.40;99.90;;;;;;4991331;28;20026;-79
2024/03/25 05:58:20;;;;;;;1.15;0.80;;;2.40;99.90;;;;;;4991531;28;20097;-79
2024/03/25 06:00:49;;;;;;;2.17;1.20;;;2.50;99.90;;;;;;4991449;28;20024;-79
2024/03/25 06:03:16;;;;;;;4.93;1.52;;;2.50;99.90;;;;;;4995679;28;20026;-79
2024/03/25 06:05:42;;;;;;;2.00;1.60;;;2.50;99.90;;;;;;5014966;28;20033;-80
2024/03/25 06:08:16;;;;;;;2.30;1.45;;;2.50;99.90;;;;;;5016077;28;20074;-80
2024/03/25 06:10:41;;;;;;;4.78;1.70;;;2.60;99.90;;;;;;5015773;28;20030;-80
2024/03/25 06:13:07;;;;;;;1.00;1.00;;;2.60;99.90;;;;;;5001267;28;20400;-79
2024/03/25 06:15:33;;;;;;;3.00;1.30;;;2.60;99.90;;;;;;4992993;28;20031;-78
2024/03/25 06:17:58;;;;;;;0.73;0.73;;;2.80;99.90;;;;;;4993368;28;20041;-80
2024/03/25 06:20:24;;;;;;;4.30;0.77;;;4.30;99.90;;;;;;5001567;28;20672;-78
2024/03/25 06:22:50;;;;;;;3.15;2.25;;;3.80;99.90;;;;;;4992153;28;20060;-77
2024/03/25 06:25:17;;;;;;;1.67;1.58;;;3.60;99.90;;;;;;4995363;28;20036;-78
2024/03/25 06:27:43;;;;;;;1.92;1.23;;;3.50;99.90;;;;;;4996814;28;20105;-79
2024/03/25 06:35:38;;;;;;;3.78;1.52;;;3.30;99.90;;;;;;4995220;28;20049;-78
2024/03/25 06:38:04;;;;;;;1.60;1.42;;;3.30;99.90;;;;;;4993876;28;20022;-78
2024/03/25 06:40:30;;;;;;;2.35;1.80;;;3.30;99.90;;;;;;4994002;28;20065;-78
2024/03/25 06:42:57;;;;;;;2.03;1.58;;;3.30;99.90;;;;;;4993415;28;20033;-78
2024/03/25 06:45:22;;;;;;;3.50;1.45;;;3.40;99.90;;;;;;4993612;28;20038;-77
2024/03/25 06:47:48;;;;;;;3.05;1.33;;;3.60;99.90;;;;;;4995158;28;20034;-78
2024/03/25 06:50:14;;;;;;;3.08;2.00;;;3.60;99.90;;;;;;4994919;28;20397;-77
2024/03/25 06:52:40;;;;;;;1.98;1.17;;;3.60;99.90;;;;;;4991961;28;20037;-77
2024/03/25 06:55:06;;;;;;;1.42;1.20;;;3.60;99.90;;;;;;4989350;28;20034;-78
2024/03/25 06:57:31;;;;;;;2.30;1.85;;;3.70;99.90;;;;;;4986829;28;20030;-78
2024/03/25 06:59:57;;;;;;;3.63;2.17;;;3.70;99.90;;;;;;4994772;28;20393;-78
2024/03/25 07:02:23;;;;;;;3.00;2.00;;;3.70;99.90;;;;;;4993212;28;20031;-78
2024/03/25 07:04:49;;;;;;;15.65;3.47;;;3.80;99.90;;;;;;4994911;28;20477;-78
2024/03/25 07:07:15;;;;;;;3.30;2.05;;;4.00;99.90;;;;;;4993422;28;20500;-78
2024/03/25 07:09:40;;;;;;;5.63;2.45;;;4.10;99.90;;;;;;4993788;28;20034;-79
2024/03/25 07:12:06;;;;;;;3.30;2.10;;;4.10;99.90;;;;;;4992017;28;20061;-79
2024/03/25 07:14:33;;;;;;;3.17;2.03;;;4.20;99.90;;;;;;4989315;28;20089;-79
2024/03/25 07:16:58;;;;;;;3.97;2.10;;;4.30;99.90;;;;;;4993439;28;20018;-79
2024/03/25 07:19:24;;;;;;;2.38;1.70;;;4.40;99.90;;;;;;4993354;28;20068;-79
2024/03/25 07:21:50;;;;;;;3.00;1.77;;;4.50;99.90;;;;;;4993496;28;20030;-79
2024/03/25 07:24:15;;;;;;;2.58;1.63;;;4.70;99.90;;;;;;4993188;28;20184;-79
2024/03/25 07:26:41;;;;;;;1.90;1.30;;;4.80;99.90;;;;;;4994593;28;20697;-79
2024/03/25 07:29:07;;;;;;;1.13;1.08;;;5.00;99.90;;;;;;4994739;28;20077;-78
2024/03/25 07:31:33;;;;;;;7.78;3.28;;;6.50;99.90;;;;;;4993559;28;20420;-79
2024/03/25 07:33:58;;;;;;;6.88;1.73;;;6.40;99.90;;;;;;4994013;28;20033;-80
2024/03/25 07:36:24;;;;;;;2.83;1.92;;;6.30;99.90;;;;;;4994376;28;20034;-79
2024/03/25 07:38:50;;;;;;;3.75;1.40;;;6.30;99.90;;;;;;4993329;28;20022;-79
2024/03/25 07:41:15;;;;;;;1.38;1.27;;;6.20;99.90;;;;;;4993126;28;20038;-79
2024/03/25 07:43:41;;;;;;;2.47;1.35;;;6.30;99.90;;;;;;4993050;28;20050;-79
2024/03/25 07:46:07;;;;;;;2.10;1.40;;;6.30;99.90;;;;;;4994203;28;20022;-79
2024/03/25 07:48:32;;;;;;;1.05;0.95;;;6.40;99.90;;;;;;4992961;28;20162;-80
2024/03/25 07:50:58;;;;;;;1.15;0.95;;;6.40;99.90;;;;;;4992750;28;20030;-80
2024/03/25 07:53:23;;;;;;;1.20;0.55;;;6.70;99.90;;;;;;4992327;28;20027;-80
2024/03/25 07:55:51;;;;;;;0.20;0.20;;;7.10;99.40;;;;;;4992768;28;20405;-80
2024/03/25 07:58:16;;;;;;;1.05;0.52;;;7.60;91.30;;;;;;4988981;28;20548;-77
2024/03/25 08:00:42;;;;;;;0.75;0.65;;;8.90;99.90;;;;;;4989212;28;20035;-77
2024/03/25 08:03:08;;;;;;;1.00;0.90;;;9.10;80.90;;;;;;4991570;28;20098;-77
2024/03/25 08:05:33;;;;;;;0.60;0.60;;;9.80;84.80;;;;;;4994199;28;20023;-77
2024/03/25 08:07:59;;;;;;;0.52;0.50;;;9.90;73.20;;;;;;4981652;28;20121;-77
2024/03/25 08:10:25;;;;;;;0.50;0.30;;;9.70;71.30;;;;;;4984524;28;20038;-77
2024/03/25 08:12:50;;;;;;;0.40;0.40;;;9.50;68.20;;;;;;4993131;28;20034;-77
2024/03/25 08:15:16;;;;;;;3.70;0.77;;;9.50;67.10;;;;;;4993856;28;20026;-77
2024/03/25 08:17:42;;;;;;;0.68;0.68;;;9.30;69.60;;;;;;4993592;28;20027;-77
2024/03/25 08:20:08;;;;;;;1.50;0.65;;;9.30;74.20;;;;;;4992652;28;20022;-77
2024/03/25 08:22:34;;;;;;;0.52;0.52;;;9.30;70.70;;;;;;4991856;28;20497;-77
2024/03/25 08:24:59;;;;;;;2.22;0.35;;;9.30;72.40;;;;;;4995046;28;20022;-77
2024/03/25 08:27:25;;;;;;;0.35;0.13;;;9.50;71.20;;;;;;4993941;28;20449;-76
2024/03/25 08:29:53;;;;;;;0.47;0.38;;;9.60;71.20;;;;;;4997281;28;20026;-76
2024/03/25 08:32:19;;;;;;;0.47;0.30;;;9.60;68.20;;;;;;4990242;28;20049;-75
2024/03/25 08:34:45;;;;;;;2.00;0.28;;;9.60;68.70;;;;;;4996246;28;20118;-76
2024/03/25 08:37:11;;;;;;;0.20;0.20;;;9.60;71.90;;;;;;4988489;28;20054;-75
2024/03/25 08:39:36;;;;;;;0.52;0.52;;;9.90;71.10;;;;;;4992890;28;20509;-77
2024/03/25 08:42:02;;;;;;;2.58;0.77;;;9.80;69.20;;;;;;4989390;28;20030;-76
2024/03/25 08:44:28;;;;;;;2.05;0.40;;;10.00;67.00;;;;;;4993695;28;20100;-77
2024/03/25 08:46:54;;;;;;;0.55;0.45;;;10.00;66.50;;;;;;4992486;28;20034;-76
2024/03/25 08:49:19;;;;;;;0.60;0.20;;;10.00;64.90;;;;;;4993136;28;20092;-77
2024/03/25 08:51:45;;;;;;;0.63;0.47;;;10.00;59.50;;;;;;4992696;28;20117;-76
2024/03/25 08:54:11;;;;;;;0.47;0.30;;;9.90;56.60;;;;;;4983633;28;20026;-76
2024/03/25 08:56:36;;;;;;;0.45;0.20;;;9.90;60.50;;;;;;4980738;28;20041;-77
2024/03/25 08:59:03;;;;;;;0.15;0.15;;;9.90;60.50;;;;;;4983120;28;20027;-77
2024/03/25 09:01:30;;;;;;;0.30;0.17;;;9.90;57.20;;;;;;4992314;28;20014;-77
2024/03/25 09:03:56;;;;;;;2.53;2.33;;;9.80;59.80;;;;;;4992253;28;20068;-77
2024/03/25 09:06:21;;;;;;;4.65;4.25;;;9.80;60.70;;;;;;4991589;28;20026;-76
2024/03/25 09:11:32;;;;;;;0.70;0.70;;;10.00;61.30;;;;;;4993397;28;20041;-75
2024/03/25 09:13:57;;;;;;;0.30;0.22;;;10.10;59.30;;;;;;4987098;28;20555;-76
2024/03/25 09:16:23;;;;;;;0.75;0.75;;;10.10;60.10;;;;;;4985353;28;20039;-77
2024/03/25 09:18:49;;;;;;;0.40;0.30;;;10.20;58.80;;;;;;4992628;28;20014;-76
2024/03/25 09:21:14;;;;;;;1.38;1.30;;;10.30;58.90;;;;;;4990164;28;20026;-77
2024/03/25 09:23:40;;;;;;;0.75;0.50;;;10.40;59.90;;;;;;4995606;28;20033;-77
2024/03/25 09:26:05;;;;;;;1.05;0.70;;;10.50;58.40;;;;;;4993747;28;20038;-76
2024/03/25 09:28:31;;;;;;;2.75;0.38;;;10.50;55.50;;;;;;4992583;28;20027;-77
2024/03/25 09:30:57;;;;;;;0.60;0.55;;;10.70;73.00;;;;;;4992992;28;20042;-76
2024/03/25 09:33:23;;;;;;;1.02;0.40;;;10.80;56.40;;;;;;5000758;28;20030;-77
2024/03/25 09:35:49;;;;;;;1.65;0.30;;;10.60;57.20;;;;;;5008755;28;20042;-78
2024/03/25 09:38:15;;;;;;;1.02;0.93;;;10.40;55.20;;;;;;5009150;28;20022;-78
2024/03/25 09:40:41;;;;;;;0.20;0.20;;;10.60;59.30;;;;;;5010785;28;20022;-77
2024/03/25 09:43:17;;;;;;;0.45;0.40;;;10.70;56.90;;;;;;5011470;28;20444;-77
2024/03/25 09:45:48;;;;;;;0.30;0.30;;;10.70;56.80;;;;;;5014317;28;20022;-78
2024/03/25 09:48:16;;;;;;;0.50;0.30;;;10.80;57.70;;;;;;5011197;28;20042;-79
2024/03/25 09:50:43;;;;;;;0.45;0.10;;;10.90;57.70;;;;;;5003573;28;20026;-77
2024/03/25 09:53:09;;;;;;;0.20;0.20;;;10.80;55.70;;;;;;5000895;28;20493;-77
2024/03/25 09:55:35;;;;;;;0.20;0.20;;;10.80;56.30;;;;;;5006838;28;20027;-77
2024/03/25 09:58:02;;;;;;;1.13;0.90;;;10.70;54.10;;;;;;5009270;28;20022;-78
2024/03/25 10:00:29;;;;;;;0.47;0.30;;;10.80;58.00;;;;;;5006088;28;20023;-78
2024/03/25 10:02:54;;;;;;;0.40;0.38;;;10.80;57.80;;;;;;5004364;28;20023;-77
2024/03/25 10:05:20;;;;;;;0.30;0.30;;;10.90;59.10;;;;;;4999744;28;20033;-77
2024/03/25 10:07:46;;;;;;;0.63;0.55;;;10.90;58.30;;;;;;4991172;28;20053;-76
2024/03/25 10:10:11;;;;;;;2.75;1.23;;;11.00;56.10;;;;;;4992414;28;20030;-77
2024/03/25 10:12:37;;;;;;;0.50;0.50;;;11.10;58.10;;;;;;4997509;28;20032;-77
2024/03/25 10:15:04;;;;;;;2.10;1.08;;;11.20;54.20;;;;;;4996290;28;20037;-76
2024/03/25 10:17:33;;;;;;;1.08;0.50;;;11.20;54.50;;;;;;4998881;28;20412;-77
2024/03/25 10:19:59;;;;;;;2.72;0.70;;;11.10;53.90;;;;;;4995250;28;20113;-78
2024/03/25 10:22:25;;;;;;;1.20;0.55;;;11.10;52.50;;;;;;5000870;28;20057;-76
2024/03/25 10:24:50;;;;;;;0.63;0.52;;;11.10;55.10;;;;;;5003324;28;20137;-76
2024/03/25 10:27:23;;;;;;;9.75;4.10;;;11.10;55.00;;;;;;4999892;28;20034;-77
2024/03/25 10:29:55;;;;;;;1.80;1.48;;;11.10;55.80;;;;;;4995839;28;20038;-77
2024/03/25 10:32:24;;;;;;;3.17;0.43;;;11.10;53.00;;;;;;5001434;28;20394;-76
2024/03/25 10:34:50;;;;;;;0.47;0.47;;;11.10;51.10;;;;;;4995618;28;20031;-78
2024/03/25 10:37:17;;;;;;;1.05;1.00;;;11.20;51.20;;;;;;5001459;28;20038;-79
2024/03/25 10:39:54;;;;;;;0.45;0.45;;;11.30;52.50;;;;;;4999497;28;20543;-77
2024/03/25 10:42:20;;;;;;;2.65;0.68;;;11.70;51.80;;;;;;4994606;28;20035;-78
2024/03/25 10:44:47;;;;;;;1.38;1.25;;;11.70;51.70;;;;;;4999665;28;20062;-77
2024/03/25 10:47:19;;;;;;;0.30;0.30;;;11.80;49.60;;;;;;5000862;28;20038;-78
2024/03/25 10:49:59;;;;;;;4.05;3.42;;;11.90;50.60;;;;;;4999695;28;20036;-79
2024/03/25 10:52:26;;;;;;;2.95;0.93;;;11.90;48.70;;;;;;5001074;28;20057;-79
2024/03/25 10:54:54;;;;;;;1.05;0.70;;;11.70;51.00;;;;;;5002579;28;20087;-78
2024/03/25 10:57:21;;;;;;;0.57;0.40;;;11.60;48.30;;;;;;5002401;28;20030;-79
2024/03/25 10:59:47;;;;;;;0.40;0.20;;;11.50;48.50;;;;;;4996450;28;20050;-78
2024/03/25 11:02:13;;;;;;;1.38;1.10;;;11.70;49.40;;;;;;4991109;28;20497;-78
2024/03/25 11:04:40;;;;;;;1.25;1.15;;;11.80;50.80;;;;;;5002234;28;20065;-78
2024/03/25 11:07:14;;;;;;;0.45;0.45;;;12.10;50.60;;;;;;5002058;28;20022;-79
2024/03/25 11:09:41;;;;;;;1.17;1.05;;;12.20;47.00;;;;;;4999886;28;20093;-78
2024/03/25 11:12:10;;;;;;;0.73;0.43;;;12.40;49.10;;;;;;4999113;28;20138;-79
2024/03/25 11:14:36;;;;;;;0.50;0.28;;;12.40;47.90;;;;;;4991115;28;20030;-79
2024/03/25 11:17:02;;;;;;;0.10;0.10;;;12.50;47.10;;;;;;5002619;28;20073;-80
2024/03/25 11:19:29;;;;;;;1.10;1.00;;;12.10;44.40;;;;;;4999592;28;20117;-79
2024/03/25 11:22:10;;;;;;;0.52;0.47;;;12.20;47.80;;;;;;5002922;28;20022;-79
2024/03/25 11:24:39;;;;;;;1.08;1.00;;;12.00;45.30;;;;;;5000709;28;20378;-78
2024/03/25 11:27:08;;;;;;;0.30;0.30;;;11.90;44.00;;;;;;5001677;28;20030;-79
2024/03/25 11:29:34;;;;;;;0.30;0.22;;;11.90;48.80;;;;;;5001593;28;20082;-80
2024/03/25 11:32:04;;;;;;;1.27;1.20;;;12.00;49.20;;;;;;5003536;28;20054;-80
2024/03/25 11:34:29;;;;;;;1.38;0.65;;;12.20;48.50;;;;;;5015915;28;20050;-78
2024/03/25 11:36:57;;;;;;;0.60;0.50;;;12.10;47.60;;;;;;5000763;28;20018;-78
2024/03/25 11:39:23;;;;;;;5.05;2.33;;;12.00;46.30;;;;;;4999818;28;20034;-80
2024/03/25 11:41:49;;;;;;;1.50;0.60;;;12.00;48.60;;;;;;4996909;28;20022;-78
2024/03/25 11:44:17;;;;;;;1.17;0.95;;;11.90;46.60;;;;;;4994093;28;20019;-79
2024/03/25 11:46:43;;;;;;;0.25;0.25;;;11.90;46.10;;;;;;4991100;28;20069;-78
2024/03/25 11:49:14;;;;;;;0.68;0.47;;;11.90;46.10;;;;;;4996052;28;20465;-80
2024/03/25 11:51:43;;;;;;;0.43;0.30;;;12.20;46.40;;;;;;4988457;28;20058;-80
2024/03/25 11:54:13;;;;;;;0.45;0.17;;;12.40;43.20;;;;;;5001392;28;20022;-80
2024/03/25 11:56:39;;;;;;;0.60;0.30;;;12.40;40.70;;;;;;4995749;28;20484;-78
2024/03/25 11:59:04;;;;;;;0.38;0.30;;;12.10;41.90;;;;;;4999714;28;20049;-78
2024/03/25 12:01:33;;;;;;;0.70;0.70;;;12.20;43.00;;;;;;4990931;28;20502;-77
2024/03/25 12:04:12;;;;;;;0.57;0.30;;;12.20;44.30;;;;;;4990649;28;20026;-78
2024/03/25 12:06:37;;;;;;;1.05;0.52;;;12.20;43.70;;;;;;4985488;28;20057;-77
2024/03/25 12:11:48;;;;;;;0.32;0.30;;;12.10;44.40;;;;;;4999336;28;20507;-78
2024/03/25 12:14:14;;;;;;;1.55;0.40;;;12.00;43.30;;;;;;5001059;28;20022;-78
2024/03/25 12:16:40;;;;;;;0.60;0.40;;;12.00;44.40;;;;;;5003398;28;20022;-78
2024/03/25 12:19:06;;;;;;;0.30;0.30;;;11.90;44.30;;;;;;5000413;28;20030;-78
2024/03/25 12:21:31;;;;;;;2.45;0.65;;;11.90;44.40;;;;;;5003371;28;20382;-78
2024/03/25 12:23:58;;;;;;;0.35;0.32;;;11.80;43.60;;;;;;4999705;28;20026;-77
2024/03/25 12:26:24;;;;;;;2.03;1.13;;;12.00;43.60;;;;;;4995427;28;20106;-77
2024/03/25 12:28:49;;;;;;;1.08;0.40;;;12.30;46.20;;;;;;4995601;28;20042;-77
2024/03/25 12:31:16;;;;;;;0.30;0.30;;;12.50;43.90;;;;;;4993554;28;20026;-77
2024/03/25 12:33:43;;;;;;;1.50;0.80;;;12.60;43.60;;;;;;4991546;28;20071;-78
2024/03/25 12:36:11;;;;;;;0.52;0.40;;;12.90;46.00;;;;;;4993563;28;20518;-77
2024/03/25 12:38:36;;;;;;;0.30;0.30;;;13.20;44.80;;;;;;4992224;28;20038;-77
2024/03/25 12:41:09;;;;;;;1.13;0.60;;;13.50;42.70;;;;;;4992368;28;20019;-77
2024/03/25 12:43:36;;;;;;;0.47;0.25;;;13.80;40.20;;;;;;4991861;28;20015;-77
2024/03/25 12:46:05;;;;;;;0.77;0.40;;;13.50;39.40;;;;;;4993863;28;20033;-77
2024/03/25 12:48:31;;;;;;;0.30;0.30;;;13.40;38.90;;;;;;4993541;28;20026;-77
2024/03/25 12:50:57;;;;;;;0.75;0.30;;;13.50;38.00;;;;;;4990224;28;20033;-76
2024/03/25 12:53:22;;;;;;;0.30;0.20;;;13.60;40.50;;;;;;4992743;28;20484;-77
2024/03/25 12:55:48;;;;;;;3.72;1.15;;;13.60;39.90;;;;;;4990791;28;20089;-77
2024/03/25 12:58:14;;;;;;;2.85;0.60;;;13.90;71.70;;;;;;4983840;28;20393;-78
2024/03/25 13:00:40;;;;;;;1.08;0.30;;;13.80;51.40;;;;;;4991543;28;20027;-79